createdAt,value
2019-04-07T04:00:56.340Z,0.00
2019-04-07T04:01:57.471Z,0.00
2019-04-07T04:02:56.814Z,0.00
2019-04-07T04:03:56.795Z,0.00
2019-04-07T04:04:57.655Z,0.00
2019-04-07T04:05:57.354Z,0.00
2019-04-07T04:06:57.424Z,0.00
2019-04-07T04:07:57.541Z,0.00
2019-04-07T04:08:58.535Z,0.00
2019-04-07T04:09:58.218Z,0.00
2019-04-07T04:10:58.136Z,0.00
2019-04-07T04:11:58.220Z,0.00
2019-04-07T04:12:58.637Z,0.00
2019-04-07T04:13:58.560Z,0.00
2019-04-07T04:14:59.848Z,0.00
2019-04-07T04:15:58.978Z,0.00
2019-04-07T04:16:59.073Z,0.00
2019-04-07T04:17:59.242Z,0.00
2019-04-07T04:19:00.019Z,0.00
2019-04-07T04:19:59.589Z,0.00
2019-04-07T04:20:59.757Z,0.00
2019-04-07T04:22:00.631Z,0.00
2019-04-07T04:23:00.100Z,0.00
2019-04-07T04:24:00.592Z,0.00
2019-04-07T04:25:00.963Z,0.00
2019-04-07T04:26:00.950Z,0.00
2019-04-07T04:27:01.014Z,0.00
2019-04-07T04:28:01.235Z,0.00
2019-04-07T04:29:02.481Z,0.00
2019-04-07T04:30:01.296Z,0.00
2019-04-07T04:31:01.475Z,0.00
2019-04-07T04:32:01.693Z,0.00
2019-04-07T04:33:02.197Z,0.00
2019-04-07T04:34:01.988Z,0.00
2019-04-07T04:35:03.201Z,5.63
2019-04-07T04:36:02.788Z,5.63
2019-04-07T04:37:02.510Z,5.63
2019-04-07T04:38:02.660Z,5.63
2019-04-07T04:39:02.831Z,5.63
2019-04-07T04:40:03.005Z,5.63
2019-04-07T04:41:03.177Z,11.25
2019-04-07T04:42:03.969Z,11.25
2019-04-07T04:43:03.523Z,11.25
2019-04-07T04:44:03.900Z,11.25
2019-04-07T04:45:04.250Z,11.25
2019-04-07T04:46:04.027Z,16.88
2019-04-07T04:47:04.811Z,16.88
2019-04-07T04:48:04.485Z,16.88
2019-04-07T04:49:04.542Z,22.50
2019-04-07T04:50:06.054Z,22.50
2019-04-07T04:51:05.342Z,22.50
2019-04-07T04:52:05.230Z,28.13
2019-04-07T04:53:06.100Z,28.13
2019-04-07T04:54:05.388Z,28.13
2019-04-07T04:55:05.558Z,33.75
2019-04-07T04:56:05.731Z,33.75
2019-04-07T04:57:08.008Z,39.38
2019-04-07T04:58:06.070Z,39.38
2019-04-07T04:59:07.314Z,45.00
2019-04-07T05:00:06.416Z,45.00
2019-04-07T05:01:06.586Z,45.00
2019-04-07T05:02:06.751Z,50.63
2019-04-07T05:03:07.189Z,50.63
2019-04-07T05:04:07.492Z,56.25
2019-04-07T05:05:09.269Z,56.25
2019-04-07T05:06:07.866Z,61.88
2019-04-07T05:07:07.608Z,61.88
2019-04-07T05:08:08.343Z,61.88
2019-04-07T05:09:07.950Z,67.50
2019-04-07T05:10:08.312Z,73.13
2019-04-07T05:11:09.083Z,50.63
2019-04-07T05:12:08.461Z,0.00
2019-04-07T05:13:09.641Z,78.75
2019-04-07T05:14:08.968Z,78.75
2019-04-07T05:15:09.647Z,84.38
2019-04-07T05:16:09.141Z,84.38
2019-04-07T05:17:09.989Z,90.00
2019-04-07T05:18:09.787Z,90.00
2019-04-07T05:19:09.793Z,95.63
2019-04-07T05:20:10.225Z,95.63
2019-04-07T05:21:10.531Z,101.25
2019-04-07T05:22:10.257Z,101.25
2019-04-07T05:23:10.338Z,106.88
2019-04-07T05:24:10.511Z,106.88
2019-04-07T05:25:10.696Z,95.63
2019-04-07T05:26:10.999Z,112.50
2019-04-07T05:27:11.364Z,106.88
2019-04-07T05:28:11.370Z,118.13
2019-04-07T05:29:11.364Z,123.75
2019-04-07T05:30:11.534Z,123.75
2019-04-07T05:31:12.292Z,123.75
2019-04-07T05:32:12.231Z,84.38
2019-04-07T05:33:12.118Z,129.38
2019-04-07T05:34:16.427Z,5.63
2019-04-07T05:35:13.121Z,135.00
2019-04-07T05:36:12.562Z,135.00
2019-04-07T05:37:12.899Z,45.00
2019-04-07T05:38:13.588Z,140.63
2019-04-07T05:39:13.079Z,146.25
2019-04-07T05:40:13.315Z,129.38
2019-04-07T05:41:14.130Z,146.25
2019-04-07T05:42:13.598Z,151.88
2019-04-07T05:43:13.768Z,151.88
2019-04-07T05:44:13.959Z,146.25
2019-04-07T05:45:14.112Z,112.50
2019-04-07T05:46:14.808Z,163.13
2019-04-07T05:47:15.503Z,168.75
2019-04-07T05:48:17.421Z,168.75
2019-04-07T05:49:16.216Z,168.75
2019-04-07T05:50:15.471Z,174.38
2019-04-07T05:51:15.135Z,174.38
2019-04-07T05:52:16.040Z,180.00
2019-04-07T05:53:15.897Z,180.00
2019-04-07T05:54:17.359Z,185.63
2019-04-07T05:55:15.818Z,185.63
2019-04-07T05:56:16.459Z,191.25
2019-04-07T05:57:16.163Z,191.25
2019-04-07T05:58:16.340Z,196.88
2019-04-07T05:59:16.508Z,191.25
2019-04-07T06:00:17.032Z,196.88
2019-04-07T06:01:21.757Z,196.88
2019-04-07T06:02:17.026Z,208.13
2019-04-07T06:03:17.676Z,208.13
2019-04-07T06:04:19.174Z,213.75
2019-04-07T06:05:18.582Z,213.75
2019-04-07T06:06:19.063Z,225.00
2019-04-07T06:07:17.882Z,225.00
2019-04-07T06:08:26.019Z,230.63
2019-04-07T06:09:20.442Z,236.25
2019-04-07T06:10:21.794Z,236.25
2019-04-07T06:11:18.574Z,236.25
2019-04-07T06:12:19.322Z,241.88
2019-04-07T06:13:19.097Z,241.88
2019-04-07T06:14:19.329Z,241.88
2019-04-07T06:15:21.970Z,247.50
2019-04-07T06:16:20.940Z,247.50
2019-04-07T06:17:19.597Z,247.50
2019-04-07T06:18:19.770Z,258.75
2019-04-07T06:19:20.370Z,258.75
2019-04-07T06:20:20.108Z,264.38
2019-04-07T06:21:20.303Z,264.38
2019-04-07T06:22:21.016Z,270.00
2019-04-07T06:23:23.403Z,270.00
2019-04-07T06:24:22.308Z,275.63
2019-04-07T06:25:21.035Z,281.25
2019-04-07T06:26:21.141Z,281.25
2019-04-07T06:27:21.744Z,286.88
2019-04-07T06:28:21.475Z,292.50
2019-04-07T06:29:24.688Z,292.50
2019-04-07T06:30:22.107Z,298.13
2019-04-07T06:31:24.476Z,303.75
2019-04-07T06:32:22.154Z,303.75
2019-04-07T06:33:22.327Z,309.38
2019-04-07T06:34:22.635Z,309.38
2019-04-07T06:35:23.433Z,309.38
2019-04-07T06:36:26.034Z,309.38
2019-04-07T06:37:26.839Z,315.00
2019-04-07T06:38:31.822Z,320.63
2019-04-07T06:39:24.089Z,326.25
2019-04-07T06:40:24.220Z,320.63
2019-04-07T06:41:24.281Z,326.25
2019-04-07T06:42:24.177Z,326.25
2019-04-07T06:43:24.749Z,331.88
2019-04-07T06:44:24.349Z,331.88
2019-04-07T06:45:24.513Z,337.50
2019-04-07T06:46:27.643Z,337.50
2019-04-07T06:47:24.967Z,343.13
2019-04-07T06:48:25.491Z,348.75
2019-04-07T06:49:27.847Z,348.75
2019-04-07T06:50:25.800Z,354.38
2019-04-07T06:51:29.291Z,354.38
2019-04-07T06:52:25.883Z,354.38
2019-04-07T06:53:25.927Z,360.00
2019-04-07T06:54:25.958Z,360.00
2019-04-07T06:55:27.987Z,365.63
2019-04-07T06:56:26.278Z,371.25
2019-04-07T06:57:26.605Z,371.25
2019-04-07T06:58:26.660Z,371.25
2019-04-07T06:59:27.276Z,376.88
2019-04-07T07:00:26.967Z,376.88
2019-04-07T07:01:27.460Z,382.50
2019-04-07T07:02:29.488Z,382.50
2019-04-07T07:03:28.207Z,388.13
2019-04-07T07:04:27.692Z,388.13
2019-04-07T07:05:27.934Z,388.13
2019-04-07T07:06:28.551Z,388.13
2019-04-07T07:07:28.193Z,399.38
2019-04-07T07:08:28.404Z,393.75
2019-04-07T07:09:28.885Z,399.38
2019-04-07T07:10:30.344Z,399.38
2019-04-07T07:11:31.076Z,405.00
2019-04-07T07:12:35.123Z,405.00
2019-04-07T07:13:33.319Z,405.00
2019-04-07T07:14:34.784Z,410.63
2019-04-07T07:15:33.108Z,410.63
2019-04-07T07:16:29.950Z,416.25
2019-04-07T07:17:29.902Z,416.25
2019-04-07T07:18:30.629Z,416.25
2019-04-07T07:19:30.245Z,416.25
2019-04-07T07:20:31.200Z,421.88
2019-04-07T07:21:34.038Z,433.13
2019-04-07T07:22:31.145Z,427.50
2019-04-07T07:23:31.114Z,433.13
2019-04-07T07:24:31.103Z,433.13
2019-04-07T07:25:33.068Z,438.75
2019-04-07T07:26:34.578Z,444.38
2019-04-07T07:27:31.768Z,444.38
2019-04-07T07:28:31.793Z,444.38
2019-04-07T07:29:32.115Z,450.00
2019-04-07T07:30:32.445Z,450.00
2019-04-07T07:31:32.310Z,450.00
2019-04-07T07:32:35.020Z,455.63
2019-04-07T07:33:33.388Z,461.25
2019-04-07T07:34:32.829Z,461.25
2019-04-07T07:35:33.444Z,472.50
2019-04-07T07:36:33.802Z,472.50
2019-04-07T07:37:33.402Z,461.25
2019-04-07T07:38:34.338Z,472.50
2019-04-07T07:39:34.091Z,478.13
2019-04-07T07:40:35.048Z,483.75
2019-04-07T07:41:34.501Z,483.75
2019-04-07T07:42:34.237Z,489.38
2019-04-07T07:43:34.386Z,495.00
2019-04-07T07:44:38.172Z,500.63
2019-04-07T07:45:34.729Z,500.63
2019-04-07T07:46:34.903Z,523.13
2019-04-07T07:47:35.077Z,540.00
2019-04-07T07:48:35.661Z,551.25
2019-04-07T07:49:39.912Z,545.63
2019-04-07T07:50:38.066Z,556.88
2019-04-07T07:51:38.410Z,568.13
2019-04-07T07:52:35.950Z,579.38
2019-04-07T07:53:36.179Z,601.88
2019-04-07T07:54:36.789Z,618.75
2019-04-07T07:55:37.586Z,630.00
2019-04-07T07:56:36.727Z,641.25
2019-04-07T07:57:37.080Z,658.13
2019-04-07T07:58:36.988Z,675.00
2019-04-07T07:59:38.987Z,703.13
2019-04-07T08:00:40.379Z,720.00
2019-04-07T08:01:37.510Z,731.25
2019-04-07T08:02:37.681Z,748.13
2019-04-07T08:03:37.854Z,776.25
2019-04-07T08:04:38.687Z,804.38
2019-04-07T08:05:38.203Z,815.63
2019-04-07T08:06:40.756Z,821.25
2019-04-07T08:07:39.055Z,821.25
2019-04-07T08:08:39.596Z,826.88
2019-04-07T08:09:39.297Z,843.75
2019-04-07T08:10:39.721Z,843.75
2019-04-07T08:11:39.910Z,855.00
2019-04-07T08:12:40.046Z,871.88
2019-04-07T08:13:44.426Z,883.13
2019-04-07T08:14:40.381Z,900.00
2019-04-07T08:15:40.481Z,916.88
2019-04-07T08:16:40.113Z,933.75
2019-04-07T08:17:40.958Z,961.88
2019-04-07T08:18:43.584Z,973.13
2019-04-07T08:19:42.271Z,1001.25
2019-04-07T08:20:44.192Z,1018.13
2019-04-07T08:21:43.319Z,1051.88
2019-04-07T08:22:43.673Z,1080.00
2019-04-07T08:23:44.603Z,1096.88
2019-04-07T08:24:41.583Z,1130.63
2019-04-07T08:25:42.491Z,1153.13
2019-04-07T08:26:41.900Z,1181.25
2019-04-07T08:27:42.048Z,1186.88
2019-04-07T08:28:42.708Z,1220.63
2019-04-07T08:29:42.391Z,1243.13
2019-04-07T08:30:45.684Z,1248.75
2019-04-07T08:31:42.746Z,1271.25
2019-04-07T08:32:43.247Z,1293.75
2019-04-07T08:33:43.276Z,1305.00
2019-04-07T08:34:43.783Z,1310.63
2019-04-07T08:35:43.589Z,1344.38
2019-04-07T08:36:45.349Z,1372.50
2019-04-07T08:37:46.463Z,1383.75
2019-04-07T08:38:43.974Z,1395.00
2019-04-07T08:39:44.234Z,1400.63
2019-04-07T08:40:44.542Z,1417.50
2019-04-07T08:41:45.080Z,1434.38
2019-04-07T08:42:48.304Z,1445.63
2019-04-07T08:43:45.243Z,1468.13
2019-04-07T08:44:45.172Z,1496.25
2019-04-07T08:45:45.990Z,1518.75
2019-04-07T08:46:45.448Z,1546.88
2019-04-07T08:47:48.035Z,1591.88
2019-04-07T08:48:49.687Z,1603.13
2019-04-07T08:49:46.023Z,1631.25
2019-04-07T08:50:46.383Z,1659.38
2019-04-07T08:51:46.262Z,1698.75
2019-04-07T08:52:46.676Z,1721.25
2019-04-07T08:53:47.309Z,1749.38
2019-04-07T08:54:50.328Z,1760.63
2019-04-07T08:55:48.720Z,1788.75
2019-04-07T08:56:48.033Z,1856.25
2019-04-07T08:57:47.309Z,1890.00
2019-04-07T08:58:47.821Z,1895.63
2019-04-07T08:59:48.112Z,1935.00
2019-04-07T09:00:50.971Z,1985.63
2019-04-07T09:01:51.738Z,1996.88
2019-04-07T09:03:01.081Z,2019.38
2019-04-07T09:03:48.598Z,2036.25
2019-04-07T09:04:51.919Z,2070.00
2019-04-07T09:05:48.721Z,2075.63
2019-04-07T09:06:48.909Z,2103.75
2019-04-07T09:07:49.075Z,2115.00
2019-04-07T09:08:49.798Z,2126.25
2019-04-07T09:09:50.023Z,2143.13
2019-04-07T09:10:50.837Z,2171.25
2019-04-07T09:11:53.000Z,2176.88
2019-04-07T09:12:49.985Z,2171.25
2019-04-07T09:13:50.136Z,2182.50
2019-04-07T09:14:50.313Z,2227.50
2019-04-07T09:15:50.495Z,2199.38
2019-04-07T09:16:54.247Z,2227.50
2019-04-07T09:17:51.390Z,2255.63
2019-04-07T09:18:55.011Z,2289.38
2019-04-07T09:19:53.776Z,2306.25
2019-04-07T09:20:51.854Z,2328.75
2019-04-07T09:21:52.032Z,2362.50
2019-04-07T09:22:54.579Z,2390.63
2019-04-07T09:23:52.206Z,2401.88
2019-04-07T09:24:52.131Z,2385.00
2019-04-07T09:25:52.257Z,2385.00
2019-04-07T09:26:52.483Z,2362.50
2019-04-07T09:27:52.609Z,2345.63
2019-04-07T09:28:55.421Z,2328.75
2019-04-07T09:29:53.424Z,2334.38
2019-04-07T09:30:53.664Z,2340.00
2019-04-07T09:31:54.067Z,2351.25
2019-04-07T09:32:53.497Z,2396.25
2019-04-07T09:33:53.963Z,2435.63
2019-04-07T09:34:55.310Z,2480.63
2019-04-07T09:35:56.668Z,2531.25
2019-04-07T09:36:54.437Z,2593.13
2019-04-07T09:37:55.155Z,2604.38
2019-04-07T09:38:57.876Z,2621.25
2019-04-07T09:39:59.519Z,2677.50
2019-04-07T09:40:54.923Z,2688.75
2019-04-07T09:41:55.349Z,2733.75
2019-04-07T09:42:58.738Z,2745.00
2019-04-07T09:43:55.453Z,2750.63
2019-04-07T09:44:56.280Z,2784.38
2019-04-07T09:45:55.808Z,2806.88
2019-04-07T09:46:55.985Z,2823.75
2019-04-07T09:47:56.465Z,2840.63
2019-04-07T09:48:56.341Z,2846.25
2019-04-07T09:49:57.603Z,2868.75
2019-04-07T09:51:02.562Z,2885.63
2019-04-07T09:51:57.472Z,2913.75
2019-04-07T09:52:57.056Z,2919.38
2019-04-07T09:53:57.522Z,2919.38
2019-04-07T09:54:57.439Z,2936.25
2019-04-07T09:55:58.232Z,2958.75
2019-04-07T09:56:57.771Z,2986.88
2019-04-07T09:57:57.950Z,3009.38
2019-04-07T09:58:58.131Z,3065.63
2019-04-07T09:59:58.307Z,3071.25
2019-04-07T10:00:58.529Z,3093.75
2019-04-07T10:02:01.051Z,3116.25
2019-04-07T10:02:58.841Z,3110.63
2019-04-07T10:03:59.040Z,3110.63
2019-04-07T10:04:59.248Z,3093.75
2019-04-07T10:05:59.443Z,3088.13
2019-04-07T10:06:59.605Z,3099.38
2019-04-07T10:07:59.845Z,3088.13
2019-04-07T10:09:00.071Z,3110.63
2019-04-07T10:10:10.158Z,3110.63
2019-04-07T10:11:00.663Z,3121.88
2019-04-07T10:12:00.495Z,3121.88
2019-04-07T10:13:00.715Z,3127.50
2019-04-07T10:14:01.190Z,3166.88
2019-04-07T10:15:02.001Z,3206.25
2019-04-07T10:16:01.244Z,3234.38
2019-04-07T10:17:01.419Z,3256.88
2019-04-07T10:18:02.090Z,3279.38
2019-04-07T10:19:01.903Z,3363.75
2019-04-07T10:20:02.316Z,3380.63
2019-04-07T10:21:02.142Z,3386.25
2019-04-07T10:22:03.349Z,3408.75
2019-04-07T10:23:03.014Z,3391.88
2019-04-07T10:24:02.846Z,3448.13
2019-04-07T10:25:02.866Z,3453.75
2019-04-07T10:26:04.004Z,3465.00
2019-04-07T10:27:03.216Z,3476.25
2019-04-07T10:28:07.251Z,3470.63
2019-04-07T10:29:04.432Z,3498.75
2019-04-07T10:30:04.589Z,3515.63
2019-04-07T10:31:04.721Z,3515.63
2019-04-07T10:32:04.607Z,3521.25
2019-04-07T10:33:04.319Z,3493.13
2019-04-07T10:34:05.173Z,3498.75
2019-04-07T10:35:04.661Z,3521.25
2019-04-07T10:36:04.937Z,3549.38
2019-04-07T10:37:05.092Z,3566.25
2019-04-07T10:38:05.232Z,3549.38
2019-04-07T10:39:06.108Z,3633.75
2019-04-07T10:40:16.705Z,3678.75
2019-04-07T10:41:06.697Z,3701.25
2019-04-07T10:42:06.658Z,3740.63
2019-04-07T10:43:06.132Z,3735.00
2019-04-07T10:44:06.307Z,3746.25
2019-04-07T10:45:07.251Z,3763.13
2019-04-07T10:46:06.746Z,3780.00
2019-04-07T10:47:07.173Z,3819.38
2019-04-07T10:48:07.055Z,1800.00
2019-04-07T10:49:07.198Z,3813.75
2019-04-07T10:50:08.816Z,3757.50
2019-04-07T10:51:07.910Z,3892.50
2019-04-07T10:52:07.740Z,3796.88
2019-04-07T10:53:08.229Z,866.25
2019-04-07T10:54:08.175Z,3813.75
2019-04-07T10:55:08.594Z,3920.63
2019-04-07T10:56:08.884Z,1170.00
2019-04-07T10:57:08.657Z,3926.25
2019-04-07T10:58:09.130Z,3976.88
2019-04-07T10:59:09.325Z,3965.63
2019-04-07T11:00:09.198Z,1434.38
2019-04-07T11:01:09.943Z,2902.50
2019-04-07T11:02:10.260Z,3920.63
2019-04-07T11:03:09.759Z,1873.13
2019-04-07T11:04:10.637Z,3915.00
2019-04-07T11:05:10.128Z,4055.63
2019-04-07T11:06:10.295Z,4027.50
2019-04-07T11:07:10.592Z,3870.00
2019-04-07T11:08:10.664Z,3858.75
2019-04-07T11:09:11.204Z,3903.75
2019-04-07T11:10:11.504Z,3858.75
2019-04-07T11:11:11.187Z,3870.00
2019-04-07T11:12:11.402Z,3757.50
2019-04-07T11:13:12.714Z,3909.38
2019-04-07T11:14:11.749Z,3971.25
2019-04-07T11:15:12.517Z,3993.75
2019-04-07T11:16:12.759Z,4106.25
2019-04-07T11:17:12.530Z,4185.00
2019-04-07T11:18:12.475Z,4162.50
2019-04-07T11:19:12.966Z,4230.00
2019-04-07T11:20:13.334Z,4213.13
2019-04-07T11:21:13.099Z,4252.50
2019-04-07T11:22:13.206Z,4213.13
2019-04-07T11:23:13.389Z,4156.88
2019-04-07T11:24:13.684Z,4218.75
2019-04-07T11:25:14.869Z,4230.00
2019-04-07T11:26:13.936Z,4291.88
2019-04-07T11:27:14.768Z,4089.38
2019-04-07T11:28:14.299Z,4230.00
2019-04-07T11:29:14.515Z,4280.63
2019-04-07T11:30:14.658Z,4201.88
2019-04-07T11:31:15.659Z,3335.63
2019-04-07T11:32:15.029Z,1530.00
2019-04-07T11:33:16.227Z,2542.50
2019-04-07T11:34:15.981Z,3915.00
2019-04-07T11:35:15.570Z,4331.25
2019-04-07T11:36:18.010Z,4325.63
2019-04-07T11:37:15.939Z,2154.38
2019-04-07T11:38:16.812Z,1698.75
2019-04-07T11:39:16.302Z,1333.13
2019-04-07T11:40:17.112Z,3571.88
2019-04-07T11:41:17.015Z,1338.75
2019-04-07T11:42:17.079Z,4359.38
2019-04-07T11:43:17.028Z,4246.88
2019-04-07T11:44:19.911Z,3369.38
2019-04-07T11:45:17.395Z,1586.25
2019-04-07T11:46:17.604Z,3318.75
2019-04-07T11:47:18.350Z,4246.88
2019-04-07T11:48:18.037Z,4123.13
2019-04-07T11:49:18.267Z,4398.75
2019-04-07T11:50:18.921Z,4426.88
2019-04-07T11:51:18.550Z,4477.50
2019-04-07T11:52:18.654Z,4100.63
2019-04-07T11:53:18.863Z,2250.00
2019-04-07T11:54:19.787Z,4286.25
2019-04-07T11:55:19.216Z,1721.25
2019-04-07T11:56:19.577Z,1670.63
2019-04-07T11:57:20.356Z,3076.88
2019-04-07T11:58:25.984Z,1839.38
2019-04-07T11:59:20.441Z,2413.13
2019-04-07T12:00:20.603Z,1288.13
2019-04-07T12:01:20.319Z,4325.63
2019-04-07T12:02:21.590Z,4280.63
2019-04-07T12:03:24.690Z,2694.38
2019-04-07T12:04:21.563Z,4387.50
2019-04-07T12:05:21.220Z,4365.00
2019-04-07T12:06:24.158Z,4297.50
2019-04-07T12:07:22.035Z,2193.75
2019-04-07T12:08:21.686Z,4263.75
2019-04-07T12:09:22.276Z,4269.38
2019-04-07T12:10:22.487Z,4151.25
2019-04-07T12:11:22.236Z,3954.38
2019-04-07T12:12:22.903Z,4168.13
2019-04-07T12:13:22.514Z,1591.88
2019-04-07T12:14:22.617Z,1755.00
2019-04-07T12:15:25.784Z,4083.75
2019-04-07T12:16:24.715Z,4111.88
2019-04-07T12:17:23.426Z,4100.63
2019-04-07T12:18:23.476Z,4134.38
2019-04-07T12:19:24.888Z,4055.63
2019-04-07T12:20:25.681Z,4117.50
2019-04-07T12:21:25.503Z,4336.88
2019-04-07T12:22:24.033Z,4449.38
2019-04-07T12:23:25.675Z,4370.63
2019-04-07T12:24:27.486Z,1850.63
2019-04-07T12:25:24.565Z,4387.50
2019-04-07T12:26:24.807Z,1732.50
2019-04-07T12:27:24.915Z,1704.38
2019-04-07T12:28:25.735Z,1552.50
2019-04-07T12:29:25.503Z,1591.88
2019-04-07T12:30:26.382Z,4286.25
2019-04-07T12:31:26.036Z,2801.25
2019-04-07T12:32:26.043Z,4410.00
2019-04-07T12:33:26.575Z,1569.38
2019-04-07T12:34:26.489Z,1507.50
2019-04-07T12:35:26.359Z,1653.75
2019-04-07T12:36:29.460Z,1518.75
2019-04-07T12:37:27.355Z,1530.00
2019-04-07T12:38:27.438Z,4303.13
2019-04-07T12:39:27.095Z,3813.75
2019-04-07T12:40:27.961Z,1501.88
2019-04-07T12:41:30.707Z,4308.75
2019-04-07T12:42:27.767Z,4286.25
2019-04-07T12:43:27.835Z,3746.25
2019-04-07T12:44:28.899Z,3706.88
2019-04-07T12:45:28.513Z,3886.88
2019-04-07T12:46:28.971Z,3746.25
2019-04-07T12:47:28.539Z,4539.38
2019-04-07T12:48:29.978Z,4522.50
2019-04-07T12:49:29.795Z,1417.50
2019-04-07T12:50:29.083Z,1260.00
2019-04-07T12:51:29.266Z,1186.88
2019-04-07T12:52:31.163Z,1226.25
2019-04-07T12:53:32.162Z,1198.13
2019-04-07T12:54:29.818Z,2688.75
2019-04-07T12:55:30.433Z,1670.63
2019-04-07T12:56:33.327Z,1153.13
2019-04-07T12:57:30.792Z,1248.75
2019-04-07T12:58:31.243Z,1918.13
2019-04-07T12:59:30.961Z,4263.75
2019-04-07T13:00:30.881Z,1462.50
2019-04-07T13:01:31.690Z,2683.13
2019-04-07T13:02:31.799Z,4449.38
2019-04-07T13:03:31.445Z,4370.63
2019-04-07T13:04:31.868Z,4516.88
2019-04-07T13:05:34.611Z,3121.88
2019-04-07T13:06:32.073Z,4685.63
2019-04-07T13:07:32.526Z,4483.13
2019-04-07T13:08:32.360Z,4173.75
2019-04-07T13:09:33.348Z,4590.00
2019-04-07T13:10:34.309Z,4573.13
2019-04-07T13:11:37.323Z,4342.50
2019-04-07T13:12:33.250Z,1389.38
2019-04-07T13:13:34.141Z,1153.13
2019-04-07T13:14:37.814Z,1130.63
2019-04-07T13:15:33.840Z,1074.38
2019-04-07T13:16:33.887Z,1237.50
2019-04-07T13:17:36.758Z,3718.13
2019-04-07T13:18:37.795Z,4095.00
2019-04-07T13:19:35.237Z,1293.75
2019-04-07T13:20:34.682Z,4207.50
2019-04-07T13:21:34.759Z,4275.00
2019-04-07T13:22:35.481Z,4207.50
2019-04-07T13:23:36.932Z,2880.00
2019-04-07T13:24:38.853Z,3279.38
2019-04-07T13:25:36.342Z,1535.63
2019-04-07T13:26:35.701Z,3915.00
2019-04-07T13:27:38.854Z,4111.88
2019-04-07T13:28:35.985Z,4359.38
2019-04-07T13:29:37.728Z,4455.00
2019-04-07T13:30:36.569Z,4426.88
2019-04-07T13:31:36.515Z,3723.75
2019-04-07T13:32:41.644Z,1378.13
2019-04-07T13:33:37.180Z,1248.75
2019-04-07T13:34:37.039Z,4196.25
2019-04-07T13:35:37.159Z,4246.88
2019-04-07T13:36:37.734Z,4044.38
2019-04-07T13:37:38.365Z,3960.00
2019-04-07T13:38:38.374Z,4005.00
2019-04-07T13:39:41.508Z,1192.50
2019-04-07T13:40:38.092Z,1068.75
2019-04-07T13:41:44.493Z,973.13
2019-04-07T13:42:38.993Z,933.75
2019-04-07T13:43:38.619Z,1057.50
2019-04-07T13:44:39.622Z,2053.13
2019-04-07T13:45:39.036Z,3920.63
2019-04-07T13:46:39.051Z,4033.13
2019-04-07T13:47:42.574Z,4033.13
2019-04-07T13:48:39.967Z,4173.75
2019-04-07T13:49:39.638Z,4168.13
2019-04-07T13:50:40.608Z,4021.88
2019-04-07T13:51:40.843Z,4005.00
2019-04-07T13:52:41.528Z,4123.13
2019-04-07T13:53:41.009Z,4061.25
2019-04-07T13:54:40.481Z,4083.75
2019-04-07T13:55:42.643Z,4066.88
2019-04-07T13:56:40.833Z,4134.38
2019-04-07T13:57:40.960Z,4145.63
2019-04-07T13:58:41.132Z,3943.13
2019-04-07T13:59:44.067Z,3476.25
2019-04-07T14:00:42.934Z,3988.13
2019-04-07T14:01:41.664Z,4010.63
2019-04-07T14:02:42.179Z,3858.75
2019-04-07T14:03:42.016Z,4044.38
2019-04-07T14:04:42.420Z,4038.75
2019-04-07T14:05:43.059Z,3768.75
2019-04-07T14:06:44.919Z,3560.63
2019-04-07T14:07:42.819Z,2075.63
2019-04-07T14:08:43.654Z,3493.13
2019-04-07T14:09:43.120Z,3476.25
2019-04-07T14:10:43.943Z,3594.38
2019-04-07T14:11:57.331Z,3695.63
2019-04-07T14:12:44.363Z,3633.75
2019-04-07T14:13:44.651Z,3673.13
2019-04-07T14:14:44.697Z,2716.88
2019-04-07T14:15:44.289Z,3661.88
2019-04-07T14:16:44.400Z,3690.00
2019-04-07T14:17:45.045Z,3740.63
2019-04-07T14:18:46.818Z,3920.63
2019-04-07T14:19:44.933Z,3881.25
2019-04-07T14:20:45.110Z,3706.88
2019-04-07T14:21:45.263Z,3780.00
2019-04-07T14:22:45.490Z,3526.88
2019-04-07T14:23:45.634Z,3780.00
2019-04-07T14:24:46.101Z,3751.88
2019-04-07T14:25:47.491Z,1316.25
2019-04-07T14:26:46.737Z,3943.13
2019-04-07T14:27:46.314Z,3982.50
2019-04-07T14:28:46.487Z,3881.25
2019-04-07T14:29:47.120Z,3903.75
2019-04-07T14:30:46.914Z,3864.38
2019-04-07T14:31:47.021Z,3853.13
2019-04-07T14:32:49.407Z,3819.38
2019-04-07T14:33:48.068Z,3802.50
2019-04-07T14:34:47.679Z,3853.13
2019-04-07T14:35:47.833Z,3768.75
2019-04-07T14:36:48.047Z,3588.75
2019-04-07T14:37:48.408Z,1569.38
2019-04-07T14:38:48.281Z,1423.13
2019-04-07T14:39:48.825Z,3493.13
2019-04-07T14:40:48.897Z,3718.13
2019-04-07T14:41:48.808Z,3600.00
2019-04-07T14:42:49.554Z,2840.63
2019-04-07T14:43:49.708Z,1186.88
2019-04-07T14:44:50.043Z,1068.75
2019-04-07T14:45:50.398Z,1018.13
2019-04-07T14:46:50.082Z,2227.50
2019-04-07T14:47:49.941Z,1282.50
2019-04-07T14:48:50.255Z,978.75
2019-04-07T14:49:51.889Z,1051.88
2019-04-07T14:50:50.464Z,2295.00
2019-04-07T14:51:51.284Z,3166.88
2019-04-07T14:52:50.828Z,928.13
2019-04-07T14:53:51.021Z,871.88
2019-04-07T14:54:57.124Z,945.00
2019-04-07T14:55:52.104Z,2919.38
2019-04-07T14:56:52.023Z,1141.88
2019-04-07T14:57:52.453Z,2497.50
2019-04-07T14:58:53.752Z,1035.00
2019-04-07T14:59:54.154Z,1068.75
2019-04-07T15:00:52.287Z,1102.50
2019-04-07T15:01:52.471Z,1130.63
2019-04-07T15:02:53.022Z,1440.00
2019-04-07T15:03:52.830Z,1170.00
2019-04-07T15:04:53.140Z,3166.88
2019-04-07T15:05:56.397Z,3121.88
2019-04-07T15:06:53.758Z,3071.25
2019-04-07T15:07:55.886Z,3105.00
2019-04-07T15:08:53.725Z,3166.88
2019-04-07T15:09:54.595Z,3065.63
2019-04-07T15:10:54.087Z,2773.13
2019-04-07T15:11:54.266Z,1136.25
2019-04-07T15:12:54.447Z,1220.63
2019-04-07T15:13:57.263Z,1867.50
2019-04-07T15:14:55.543Z,2075.63
2019-04-07T15:15:54.986Z,2941.88
2019-04-07T15:16:55.747Z,2542.50
2019-04-07T15:17:55.349Z,2593.13
2019-04-07T15:18:56.501Z,2424.38
2019-04-07T15:19:56.051Z,1063.13
2019-04-07T15:20:56.146Z,2739.38
2019-04-07T15:21:56.068Z,2778.75
2019-04-07T15:22:58.375Z,2925.00
2019-04-07T15:23:57.253Z,2925.00
2019-04-07T15:24:57.022Z,2829.38
2019-04-07T15:25:56.856Z,2745.00
2019-04-07T15:26:57.739Z,2711.25
2019-04-07T15:27:59.377Z,2700.00
2019-04-07T15:28:59.010Z,2593.13
2019-04-07T15:29:57.795Z,2491.88
2019-04-07T15:30:57.680Z,2452.50
2019-04-07T15:31:58.567Z,2311.88
2019-04-07T15:33:01.015Z,2216.25
2019-04-07T15:34:00.516Z,2103.75
2019-04-07T15:34:58.941Z,1856.25
2019-04-07T15:35:58.934Z,973.13
2019-04-07T15:36:59.087Z,838.13
2019-04-07T15:37:59.192Z,1316.25
2019-04-07T15:38:59.555Z,2278.13
2019-04-07T15:40:02.683Z,2295.00
2019-04-07T15:41:00.888Z,2328.75
2019-04-07T15:41:59.673Z,2396.25
2019-04-07T15:43:03.863Z,2407.50
2019-04-07T15:44:00.462Z,2463.75
2019-04-07T15:45:01.104Z,2508.75
2019-04-07T15:46:01.204Z,1350.00
2019-04-07T15:47:00.575Z,2351.25
2019-04-07T15:48:00.948Z,2328.75
2019-04-07T15:49:00.930Z,2340.00
2019-04-07T15:50:01.112Z,2205.00
2019-04-07T15:51:04.657Z,2030.63
2019-04-07T15:52:01.735Z,1800.00
2019-04-07T15:53:01.663Z,1721.25
2019-04-07T15:54:02.679Z,1890.00
2019-04-07T15:55:02.085Z,1940.63
2019-04-07T15:56:06.327Z,1794.38
2019-04-07T15:57:02.560Z,1957.50
2019-04-07T15:58:03.080Z,1929.38
2019-04-07T15:59:03.548Z,1856.25
2019-04-07T16:00:05.018Z,1816.88
2019-04-07T16:01:06.533Z,1755.00
2019-04-07T16:02:03.271Z,1603.13
2019-04-07T16:03:04.203Z,1693.13
2019-04-07T16:04:05.745Z,1873.13
2019-04-07T16:05:03.819Z,1642.50
2019-04-07T16:06:04.609Z,1496.25
2019-04-07T16:07:04.169Z,1479.38
2019-04-07T16:08:04.351Z,1462.50
2019-04-07T16:09:10.239Z,1541.25
2019-04-07T16:10:04.711Z,1080.00
2019-04-07T16:11:05.025Z,1271.25
2019-04-07T16:12:06.410Z,1215.00
2019-04-07T16:13:05.259Z,1451.25
2019-04-07T16:14:12.490Z,1546.88
2019-04-07T16:15:05.604Z,1372.50
2019-04-07T16:16:05.872Z,1445.63
2019-04-07T16:17:09.242Z,1417.50
2019-04-07T16:18:07.638Z,1153.13
2019-04-07T16:19:10.238Z,787.50
2019-04-07T16:20:06.932Z,680.63